Date,TemperatureHighF,TemperatureAvgF,TemperatureLowF,DewpointHighF,DewpointAvgF,DewpointLowF,HumidityHigh,HumidityAvg,HumidityLow,PressureMaxIn,PressureMinIn,WindSpeedMaxMPH,WindSpeedAvgMPH,GustSpeedMaxMPH,PrecipitationSumIn
2013-4-1,77,63,54,57,47,35,99,63,26,29.90,29.75,7,2,0,0.02
2013-4-2,73,57,39,39,34,18,96,47,19,30.07,29.89,4,1,0,0.00
2013-4-3,63,55,50,36,26,18,54,34,24,30.17,30.01,9,2,0,0.00
2013-4-4,52,44,38,39,35,27,99,74,43,30.13,29.89,7,2,0,0.68
2013-4-5,67,50,35,46,42,35,99,76,42,29.97,29.84,6,1,0,0.00
2013-4-6,75,54,34,43,38,34,99,63,23,30.12,29.97,5,1,0,0.00
2013-4-7,75,58,40,50,45,39,98,67,38,30.15,29.98,4,1,0,0.00
2013-4-8,83,63,49,58,52,48,99,72,36,30.07,29.94,6,1,0,0.00
2013-4-9,84,66,49,60,55,49,99,73,40,30.09,29.98,4,0,0,0.00
2013-4-10,87,69,54,63,58,53,99,72,40,30.01,29.81,5,0,0,0.00
2013-4-11,83,69,56,68,61,55,99,79,50,29.85,29.58,4,1,0,0.07
2013-4-12,80,68,60,68,56,40,99,71,35,29.72,29.54,5,2,0,1.51
2013-4-13,82,61,42,48,42,38,99,57,23,29.91,29.74,4,0,0,0.00
2013-4-14,72,59,45,57,50,44,96,75,44,29.99,29.86,3,0,0,0.02
2013-4-15,73,64,55,62,59,55,99,85,60,30.09,29.87,3,0,0,0.13
2013-4-16,83,68,57,63,60,57,99,78,48,30.20,30.06,4,0,0,0.00
2013-4-17,86,69,60,66,63,60,99,83,47,30.14,29.99,5,1,0,0.63
2013-4-18,82,69,59,66,62,59,99,81,50,30.03,29.84,3,0,0,0.00
2013-4-19,72,62,48,67,60,47,96,92,82,29.85,29.68,6,1,0,0.66
2013-4-20,68,52,38,47,39,31,99,69,29,30.16,29.84,4,1,0,0.01
2013-4-21,68,54,38,41,38,33,98,61,34,30.31,30.17,6,1,0,0.00
2013-4-22,67,55,45,42,39,37,86,58,36,30.31,30.11,7,2,0,0.00
2013-4-23,77,56,39,51,44,36,93,67,37,30.18,30.01,4,0,0,0.00
2013-4-24,76,61,48,63,55,48,99,84,54,30.06,29.94,6,0,0,0.08
2013-4-25,77,62,51,60,49,40,99,68,30,30.17,29.97,6,0,0,0.00
2013-4-26,76,58,40,50,41,34,96,60,25,30.32,30.17,4,0,0,0.00
2013-4-27,59,57,52,58,54,50,99,93,76,30.27,30.14,2,0,0,0.23
2013-4-28,55,54,52,54,53,52,99,99,99,30.17,29.96,4,0,0,1.99
2013-4-29,72,61,53,64,58,53,99,92,73,29.98,29.83,4,0,0,0.08
2013-4-30,78,64,54,64,58,54,99,83,57,30.05,29.88,4,1,0,0.00